Time;durP1;ratioP1;P1;durP2;ratioP2;P2;SDS_P1;SDS_P2;PMS_P1;PMS_P2;Temp;Humidity;BMP_temperature;BMP_pressure;BME280_temperature;BME280_humidity;BME280_pressure;Samples;Min_cycle;Max_cycle;Signal;HPM_P1;HPM_P2
2023/10/24 00:01:38;;;;;;;13.40;6.77;;;10.40;99.90;;;;;;5004915;28;20050;-72
2023/10/24 00:04:04;;;;;;;13.93;6.35;;;10.40;99.90;;;;;;5018433;28;20049;-72
2023/10/24 00:06:30;;;;;;;10.43;6.13;;;10.50;99.90;;;;;;5013425;28;20042;-72
2023/10/24 00:08:56;;;;;;;13.47;7.00;;;10.50;99.90;;;;;;5014954;28;20524;-72
2023/10/24 00:11:21;;;;;;;11.13;6.32;;;10.50;99.90;;;;;;5017979;28;20095;-72
2023/10/24 00:13:47;;;;;;;11.97;6.47;;;10.50;99.90;;;;;;5011682;28;20206;-72
2023/10/24 00:16:13;;;;;;;14.47;6.77;;;10.50;99.90;;;;;;5018624;28;20754;-72
2023/10/24 00:18:38;;;;;;;14.43;6.80;;;10.50;99.90;;;;;;5019321;28;20049;-72
2023/10/24 00:21:04;;;;;;;12.65;6.45;;;10.50;99.90;;;;;;5016465;28;20064;-72
2023/10/24 00:23:30;;;;;;;11.30;6.40;;;10.50;99.90;;;;;;5008443;28;20045;-73
2023/10/24 00:25:55;;;;;;;13.13;7.07;;;10.50;99.90;;;;;;5012698;28;20309;-72
2023/10/24 00:28:21;;;;;;;19.07;8.23;;;10.50;99.90;;;;;;5015837;28;20095;-72
2023/10/24 00:30:47;;;;;;;11.32;6.65;;;10.50;99.90;;;;;;5018580;28;20116;-72
2023/10/24 00:33:14;;;;;;;11.10;6.37;;;10.50;99.90;;;;;;5016556;28;20076;-72
2023/10/24 00:35:40;;;;;;;12.32;7.13;;;10.50;99.90;;;;;;5010937;28;20045;-72
2023/10/24 00:38:06;;;;;;;14.17;7.13;;;10.50;99.90;;;;;;5014887;28;20242;-72
2023/10/24 00:40:37;;;;;;;15.33;7.10;;;10.50;99.90;;;;;;5016975;28;20286;-72
2023/10/24 00:43:06;;;;;;;14.48;7.43;;;10.50;99.90;;;;;;5022890;28;20049;-72
2023/10/24 00:45:34;;;;;;;14.85;6.80;;;10.50;99.90;;;;;;5014675;28;20026;-72
2023/10/24 00:48:05;;;;;;;13.20;6.80;;;10.50;99.90;;;;;;4998122;28;20080;-72
2023/10/24 00:50:31;;;;;;;16.83;7.22;;;10.50;99.90;;;;;;5015894;28;20045;-72
2023/10/24 00:53:00;;;;;;;;;;;10.50;99.90;;;;;;5010925;28;20049;-72
2023/10/24 00:55:27;;;;;;;16.88;7.22;;;10.50;99.90;;;;;;5012900;28;19971;-72
2023/10/24 00:57:54;;;;;;;;;;;10.50;99.90;;;;;;5024632;28;20042;-72
2023/10/24 01:00:23;;;;;;;11.98;6.70;;;10.50;99.90;;;;;;5013214;28;20362;-72
2023/10/24 01:02:49;;;;;;;12.50;7.10;;;10.50;99.90;;;;;;5015130;28;20037;-72
2023/10/24 01:05:18;;;;;;;12.00;6.78;;;10.50;99.90;;;;;;5008168;28;20665;-72
2023/10/24 01:07:45;;;;;;;14.55;6.63;;;10.40;99.90;;;;;;5011401;28;20099;-72
2023/10/24 01:10:11;;;;;;;13.18;7.05;;;10.40;99.90;;;;;;5017759;28;20048;-72
2023/10/24 01:12:38;;;;;;;13.30;7.85;;;10.40;99.90;;;;;;5011287;28;20152;-72
2023/10/24 01:15:05;;;;;;;14.20;7.30;;;10.40;99.90;;;;;;5019142;28;20049;-72
2023/10/24 01:17:31;;;;;;;15.52;7.65;;;10.40;99.90;;;;;;5006675;28;20038;-72
2023/10/24 01:19:58;;;;;;;15.83;7.37;;;10.40;99.90;;;;;;5010515;28;20041;-72
2023/10/24 01:22:27;;;;;;;13.50;6.72;;;10.40;99.90;;;;;;5011562;28;20038;-72
2023/10/24 01:24:53;;;;;;;14.45;7.38;;;10.40;99.90;;;;;;5014462;28;20050;-72
2023/10/24 01:27:21;;;;;;;16.15;8.13;;;10.40;99.90;;;;;;5009682;28;20057;-72
2023/10/24 01:29:47;;;;;;;15.88;6.93;;;10.40;99.90;;;;;;5011955;28;20114;-72
2023/10/24 01:32:12;;;;;;;16.47;7.63;;;10.40;99.90;;;;;;5016804;28;20506;-72
2023/10/24 01:34:38;;;;;;;13.93;7.03;;;10.40;99.90;;;;;;5009678;28;20048;-72
2023/10/24 01:37:03;;;;;;;13.83;7.53;;;10.40;99.90;;;;;;5011976;28;20038;-72
2023/10/24 01:39:30;;;;;;;13.23;7.63;;;10.40;99.90;;;;;;5001936;28;20048;-72
2023/10/24 01:41:59;;;;;;;15.63;7.55;;;10.40;99.90;;;;;;5014504;28;20041;-72
2023/10/24 01:44:27;;;;;;;20.87;7.83;;;10.40;99.90;;;;;;5019555;28;20048;-72
2023/10/24 01:46:53;;;;;;;13.65;7.20;;;10.40;99.90;;;;;;5018712;28;20045;-72
2023/10/24 01:49:21;;;;;;;13.87;7.07;;;10.40;99.90;;;;;;4997276;28;20052;-72
2023/10/24 01:51:50;;;;;;;16.33;7.80;;;10.40;99.90;;;;;;5021828;28;20409;-72
2023/10/24 01:54:15;;;;;;;13.98;7.32;;;10.40;99.90;;;;;;5017067;28;20042;-72
2023/10/24 01:56:44;;;;;;;14.38;7.18;;;10.40;99.90;;;;;;5019308;28;20129;-72
2023/10/24 01:59:09;;;;;;;14.57;6.90;;;10.40;99.90;;;;;;5015365;28;20155;-72
2023/10/24 02:01:35;;;;;;;12.17;6.60;;;10.40;99.90;;;;;;5001699;28;20301;-72
2023/10/24 02:04:09;;;;;;;14.15;6.75;;;10.40;99.90;;;;;;5004125;28;20046;-72
2023/10/24 02:06:37;;;;;;;12.02;6.63;;;10.40;99.90;;;;;;5012089;28;20069;-72
2023/10/24 02:09:03;;;;;;;13.32;7.55;;;10.40;99.90;;;;;;5025658;28;20607;-72
2023/10/24 02:11:29;;;;;;;14.70;7.20;;;10.40;99.90;;;;;;5013517;28;20144;-72
2023/10/24 02:13:57;;;;;;;12.05;6.60;;;10.40;99.90;;;;;;5016986;28;20575;-72
2023/10/24 02:16:25;;;;;;;12.02;6.38;;;10.40;99.90;;;;;;5010661;28;20501;-72
2023/10/24 02:18:51;;;;;;;12.87;6.67;;;10.40;99.90;;;;;;5020460;28;20179;-72
2023/10/24 02:21:19;;;;;;;9.37;5.43;;;10.40;99.90;;;;;;5020399;28;20037;-72
2023/10/24 02:23:45;;;;;;;11.27;6.25;;;10.40;99.90;;;;;;5014608;28;20064;-72
2023/10/24 02:26:17;;;;;;;11.93;6.10;;;10.40;99.90;;;;;;5014099;28;20042;-72
2023/10/24 02:28:45;;;;;;;12.15;6.03;;;10.40;99.90;;;;;;5016441;28;20045;-72
2023/10/24 02:31:11;;;;;;;9.80;5.50;;;10.40;99.90;;;;;;5017192;28;20048;-72
2023/10/24 02:33:42;;;;;;;10.18;5.47;;;10.40;99.90;;;;;;5012670;28;20041;-72
2023/10/24 02:36:14;;;;;;;10.25;5.30;;;10.40;99.90;;;;;;5015129;28;20095;-72
2023/10/24 02:38:39;;;;;;;10.02;5.50;;;10.40;99.90;;;;;;5013831;28;20092;-72
2023/10/24 02:41:05;;;;;;;9.20;5.40;;;10.40;99.90;;;;;;5013463;28;20513;-72
2023/10/24 02:43:31;;;;;;;9.00;4.72;;;10.40;99.90;;;;;;5016931;28;20129;-72
2023/10/24 02:46:00;;;;;;;10.23;5.72;;;10.50;99.90;;;;;;5014362;28;20532;-72
2023/10/24 02:48:29;;;;;;;8.93;4.63;;;10.50;99.90;;;;;;5023526;28;20049;-72
2023/10/24 02:50:56;;;;;;;11.23;5.60;;;10.50;99.90;;;;;;5013832;28;20132;-72
2023/10/24 02:53:22;;;;;;;;;;;10.50;99.90;;;;;;5009679;28;20042;-72
2023/10/24 02:55:51;;;;;;;9.05;4.88;;;10.50;99.90;;;;;;5020180;28;20370;-72
2023/10/24 02:58:17;;;;;;;8.68;4.63;;;10.50;99.90;;;;;;5021519;28;20136;-72
2023/10/24 03:00:44;;;;;;;7.50;4.10;;;10.50;99.90;;;;;;5016548;28;20390;-72
2023/10/24 03:03:11;;;;;;;8.68;4.85;;;10.50;99.90;;;;;;5008865;28;20049;-72
2023/10/24 03:05:37;;;;;;;8.68;4.43;;;10.50;99.90;;;;;;5013801;28;20406;-72
2023/10/24 03:08:05;;;;;;;7.40;3.92;;;10.50;99.90;;;;;;5022686;28;20033;-72
2023/10/24 03:10:37;;;;;;;8.23;5.00;;;10.50;99.90;;;;;;5020149;28;20556;-72
2023/10/24 03:13:03;;;;;;;8.88;4.93;;;10.60;99.90;;;;;;5018560;28;20045;-72
2023/10/24 03:15:28;;;;;;;6.95;4.10;;;10.60;99.90;;;;;;5018983;28;20048;-72
2023/10/24 03:17:56;;;;;;;8.13;4.53;;;10.60;99.90;;;;;;5018682;28;20053;-72
2023/10/24 03:20:22;;;;;;;8.18;4.18;;;10.60;99.90;;;;;;5020449;28;20129;-72
2023/10/24 03:22:48;;;;;;;7.47;4.13;;;10.60;99.90;;;;;;5021223;28;20549;-72
2023/10/24 03:25:13;;;;;;;8.27;4.43;;;10.60;99.90;;;;;;5023860;28;20128;-72
2023/10/24 03:27:39;;;;;;;8.37;4.70;;;10.70;99.90;;;;;;5013290;28;20410;-72
2023/10/24 03:30:05;;;;;;;7.10;4.30;;;10.60;99.90;;;;;;5013509;28;20406;-72
2023/10/24 03:32:31;;;;;;;8.45;4.85;;;10.60;99.90;;;;;;5014202;28;20053;-72
2023/10/24 03:34:57;;;;;;;6.22;3.80;;;10.70;99.90;;;;;;4999894;28;20236;-72
2023/10/24 03:37:23;;;;;;;6.97;4.30;;;10.70;99.90;;;;;;5014509;28;20063;-72
2023/10/24 03:40:04;;;;;;;9.52;4.53;;;10.70;99.90;;;;;;4931695;28;20051;-72
2023/10/24 03:42:30;;;;;;;7.43;4.38;;;10.70;99.90;;;;;;4987680;28;20054;-72
2023/10/24 03:44:56;;;;;;;9.05;5.05;;;10.70;99.90;;;;;;5016400;28;20402;-72
2023/10/24 03:47:21;;;;;;;6.97;4.27;;;10.80;99.90;;;;;;5017641;28;20057;-72
2023/10/24 03:49:47;;;;;;;8.30;5.20;;;10.80;99.90;;;;;;5011678;28;20084;-72
2023/10/24 03:52:15;;;;;;;7.83;4.23;;;10.80;99.90;;;;;;5021357;28;20282;-72
2023/10/24 03:54:41;;;;;;;7.47;4.30;;;10.80;99.90;;;;;;5010359;28;20475;-72
2023/10/24 03:57:07;;;;;;;7.87;4.37;;;10.80;99.90;;;;;;5010735;28;20100;-72
2023/10/24 03:59:32;;;;;;;7.03;4.37;;;10.90;99.90;;;;;;5011808;28;20071;-72
2023/10/24 04:01:58;;;;;;;9.43;4.87;;;10.80;99.90;;;;;;5019281;28;20087;-72
2023/10/24 04:04:30;;;;;;;9.07;4.65;;;10.90;99.90;;;;;;5012818;28;20502;-72
2023/10/24 04:06:56;;;;;;;7.75;4.95;;;10.90;99.90;;;;;;5013528;28;20046;-72
2023/10/24 04:09:22;;;;;;;7.00;4.43;;;10.90;99.90;;;;;;4993932;28;20045;-72
2023/10/24 04:11:47;;;;;;;8.33;4.67;;;10.90;99.90;;;;;;5005100;28;20047;-72
2023/10/24 04:14:13;;;;;;;9.30;5.27;;;10.90;99.90;;;;;;5018586;28;20042;-72
2023/10/24 04:16:39;;;;;;;9.57;4.47;;;11.00;99.90;;;;;;5013062;28;20030;-72
2023/10/24 04:19:04;;;;;;;9.40;5.33;;;10.90;99.90;;;;;;5024849;28;20056;-72
2023/10/24 04:21:34;;;;;;;8.37;4.57;;;11.00;99.90;;;;;;5011044;28;20394;-72
2023/10/24 04:24:00;;;;;;;8.60;5.13;;;11.00;99.90;;;;;;5012205;28;20389;-72
2023/10/24 04:26:26;;;;;;;8.20;4.67;;;11.00;99.90;;;;;;5015597;28;20378;-72
2023/10/24 04:28:55;;;;;;;8.87;5.13;;;11.00;99.90;;;;;;5008304;28;20544;-72
2023/10/24 04:31:23;;;;;;;8.48;5.28;;;11.00;99.90;;;;;;5014023;28;20101;-72
2023/10/24 04:33:49;;;;;;;7.18;4.95;;;11.10;99.90;;;;;;5014766;28;20437;-72
2023/10/24 04:36:14;;;;;;;8.97;5.73;;;11.00;99.90;;;;;;5019843;28;20050;-72
2023/10/24 04:38:40;;;;;;;9.47;5.80;;;11.10;99.90;;;;;;5014917;28;20394;-72
2023/10/24 04:41:10;;;;;;;10.87;5.83;;;11.10;99.90;;;;;;5014397;28;20069;-72
2023/10/24 04:43:36;;;;;;;9.77;6.28;;;11.10;99.90;;;;;;5031100;28;20046;-72
2023/10/24 04:46:02;;;;;;;9.10;5.70;;;11.10;99.90;;;;;;5006670;28;20049;-72
2023/10/24 04:48:28;;;;;;;11.65;6.25;;;11.10;99.90;;;;;;5016834;28;20300;-72
2023/10/24 04:50:54;;;;;;;8.70;5.55;;;11.10;99.90;;;;;;5010664;28;20054;-72
2023/10/24 04:53:19;;;;;;;11.50;6.40;;;11.20;99.90;;;;;;5009596;28;20049;-72
2023/10/24 04:55:45;;;;;;;8.07;5.43;;;11.20;99.90;;;;;;5013478;28;20053;-72
2023/10/24 04:58:13;;;;;;;10.13;6.13;;;11.20;99.90;;;;;;5011955;28;20042;-72
2023/10/24 05:00:39;;;;;;;10.48;6.10;;;11.20;99.90;;;;;;5014351;28;20029;-72
2023/10/24 05:03:05;;;;;;;10.20;5.90;;;11.20;99.90;;;;;;5010230;28;20148;-73
2023/10/24 05:05:30;;;;;;;10.07;6.50;;;11.20;99.90;;;;;;5014494;28;20065;-72
2023/10/24 05:07:56;;;;;;;8.47;6.03;;;11.30;99.90;;;;;;5019079;28;20046;-72
2023/10/24 05:10:21;;;;;;;12.23;7.40;;;11.30;99.90;;;;;;5015481;28;20038;-72
2023/10/24 05:12:47;;;;;;;11.07;7.07;;;11.30;99.90;;;;;;5017935;28;20125;-72
2023/10/24 05:15:15;;;;;;;10.17;6.50;;;11.30;99.90;;;;;;5017618;28;20042;-72
2023/10/24 05:17:41;;;;;;;11.23;7.10;;;11.30;99.90;;;;;;5015370;28;20045;-72
2023/10/24 05:20:07;;;;;;;12.10;6.80;;;11.30;99.90;;;;;;5010954;28;20079;-72
2023/10/24 05:22:36;;;;;;;11.70;7.32;;;11.40;99.90;;;;;;5013946;28;20048;-72
2023/10/24 05:25:02;;;;;;;11.80;6.88;;;11.40;99.90;;;;;;5018798;28;20383;-73
2023/10/24 05:27:28;;;;;;;9.40;6.93;;;11.40;99.90;;;;;;5015703;28;20457;-72
2023/10/24 05:29:54;;;;;;;14.48;7.55;;;11.40;99.90;;;;;;5018841;28;20111;-72
2023/10/24 05:32:22;;;;;;;10.68;7.13;;;11.40;99.90;;;;;;5016360;28;20053;-72
2023/10/24 05:34:48;;;;;;;10.93;7.47;;;11.40;99.90;;;;;;5015803;28;20041;-73
2023/10/24 05:37:14;;;;;;;11.57;7.33;;;11.50;99.90;;;;;;4999865;28;20120;-72
2023/10/24 05:39:39;;;;;;;12.80;7.57;;;11.50;99.90;;;;;;5014099;28;20296;-72
2023/10/24 05:42:05;;;;;;;15.23;8.13;;;11.50;99.90;;;;;;5010894;28;20096;-72
2023/10/24 05:44:33;;;;;;;10.30;7.03;;;11.50;99.90;;;;;;5013256;28;20048;-76
2023/10/24 05:46:58;;;;;;;11.18;7.63;;;11.50;99.90;;;;;;5014064;28;20247;-73
2023/10/24 05:49:24;;;;;;;12.23;7.50;;;11.50;99.90;;;;;;5016525;28;20057;-73
2023/10/24 05:51:50;;;;;;;10.53;7.57;;;11.50;99.90;;;;;;5015694;28;20533;-74
2023/10/24 05:54:16;;;;;;;13.98;8.07;;;11.50;99.90;;;;;;5014898;28;20061;-74
2023/10/24 05:56:41;;;;;;;9.80;6.63;;;11.50;99.90;;;;;;4997903;28;20094;-73
2023/10/24 05:59:07;;;;;;;10.40;6.60;;;11.50;99.90;;;;;;5014208;28;20363;-74
2023/10/24 06:01:36;;;;;;;10.53;7.17;;;11.50;99.90;;;;;;5007673;28;20370;-73
2023/10/24 06:04:04;;;;;;;16.10;6.97;;;11.50;99.90;;;;;;5017841;28;20042;-74
2023/10/24 06:06:30;;;;;;;11.93;7.78;;;11.50;99.90;;;;;;5008473;28;20945;-72
2023/10/24 06:08:55;;;;;;;11.07;6.93;;;11.50;99.90;;;;;;5015334;28;20096;-72
2023/10/24 06:11:21;;;;;;;9.27;6.40;;;11.50;99.90;;;;;;5017609;28;20060;-72
2023/10/24 06:13:46;;;;;;;12.73;6.60;;;11.50;99.90;;;;;;5015031;28;20128;-72
2023/10/24 06:16:14;;;;;;;11.00;6.93;;;11.50;99.90;;;;;;5015346;28;20050;-72
2023/10/24 06:18:39;;;;;;;11.02;6.90;;;11.50;99.90;;;;;;5012782;28;20045;-72
2023/10/24 06:21:06;;;;;;;11.00;6.70;;;11.50;99.90;;;;;;5017743;28;20041;-72
2023/10/24 06:23:32;;;;;;;;;;;11.50;99.90;;;;;;5014271;28;20345;-72
2023/10/24 06:26:03;;;;;;;11.52;5.75;;;11.50;99.90;;;;;;5017815;28;19923;-72
2023/10/24 06:28:28;;;;;;;11.45;6.82;;;11.40;99.90;;;;;;5013766;28;20048;-72
2023/10/24 06:31:00;;;;;;;10.73;5.90;;;11.50;99.90;;;;;;5016876;28;20041;-72
2023/10/24 06:33:29;;;;;;;10.80;6.15;;;11.50;99.90;;;;;;5000827;28;20298;-73
2023/10/24 06:35:56;;;;;;;9.25;6.05;;;11.50;99.90;;;;;;5014108;28;20041;-72
2023/10/24 06:38:22;;;;;;;7.95;5.28;;;11.50;99.90;;;;;;5015806;28;20060;-72
2023/10/24 06:40:50;;;;;;;8.68;5.00;;;11.50;99.90;;;;;;5020165;28;20030;-72
2023/10/24 06:43:18;;;;;;;9.07;5.30;;;11.50;99.90;;;;;;5020426;28;20048;-71
2023/10/24 06:45:46;;;;;;;10.45;4.70;;;11.50;99.90;;;;;;5015061;28;20467;-71
2023/10/24 06:48:17;;;;;;;6.43;4.05;;;11.50;99.90;;;;;;5014646;28;20585;-72
2023/10/24 06:50:46;;;;;;;6.60;3.85;;;11.40;99.90;;;;;;5010555;28;20486;-72
2023/10/24 06:53:12;;;;;;;5.80;3.90;;;11.50;99.90;;;;;;5014007;28;20387;-72
2023/10/24 06:55:38;;;;;;;5.93;3.80;;;11.40;99.90;;;;;;5025614;28;20303;-72
2023/10/24 06:58:04;;;;;;;6.20;3.55;;;11.40;99.90;;;;;;5019316;28;20391;-72
2023/10/24 07:00:31;;;;;;;6.43;3.50;;;11.40;99.90;;;;;;5015229;28;20046;-72
2023/10/24 07:02:56;;;;;;;9.45;4.30;;;11.40;99.90;;;;;;5012315;28;20046;-71
2023/10/24 07:05:26;;;;;;;8.02;4.10;;;11.40;99.90;;;;;;5019085;28;20048;-72
2023/10/24 07:07:52;;;;;;;6.35;3.65;;;11.40;99.90;;;;;;4998748;28;20045;-72
2023/10/24 07:10:19;;;;;;;6.60;4.20;;;11.40;99.90;;;;;;5016492;28;20049;-72
2023/10/24 07:12:45;;;;;;;6.60;3.97;;;11.40;99.90;;;;;;5016032;28;20037;-72
2023/10/24 07:15:10;;;;;;;6.53;3.53;;;11.40;99.90;;;;;;5016551;28;20029;-72
2023/10/24 07:17:36;;;;;;;7.13;3.70;;;11.30;99.90;;;;;;5014887;28;20128;-72
2023/10/24 07:20:02;;;;;;;8.43;3.70;;;11.30;99.90;;;;;;5015588;28;20053;-72
2023/10/24 07:22:28;;;;;;;8.15;3.80;;;11.30;99.90;;;;;;5014511;28;20128;-72
2023/10/24 07:24:54;;;;;;;9.52;4.35;;;11.30;99.90;;;;;;5018623;28;20053;-72
2023/10/24 07:27:21;;;;;;;8.57;4.78;;;11.30;99.90;;;;;;5020180;28;20509;-72
2023/10/24 07:29:46;;;;;;;;;;;11.30;99.90;;;;;;5017438;28;20070;-72
2023/10/24 07:32:12;;;;;;;10.13;4.68;;;11.30;99.90;;;;;;5014874;28;19923;-72
2023/10/24 07:34:41;;;;;;;9.05;5.25;;;11.30;99.90;;;;;;5015385;28;20494;-72
2023/10/24 07:37:09;;;;;;;9.18;5.50;;;11.30;99.90;;;;;;5014443;28;20107;-72
2023/10/24 07:39:36;;;;;;;9.55;4.82;;;11.30;99.90;;;;;;5012228;28;20121;-72
2023/10/24 07:42:02;;;;;;;9.38;5.05;;;11.30;99.90;;;;;;5011536;28;20132;-72
2023/10/24 07:44:28;;;;;;;10.27;5.00;;;11.30;99.90;;;;;;5011108;28;20065;-72
2023/10/24 07:46:54;;;;;;;7.38;4.60;;;11.30;99.90;;;;;;5015156;28;20519;-72
2023/10/24 07:49:20;;;;;;;10.13;5.40;;;11.30;99.90;;;;;;5016085;28;20125;-72
2023/10/24 07:51:45;;;;;;;10.27;5.40;;;11.30;99.90;;;;;;5014482;28;20049;-72
2023/10/24 07:54:12;;;;;;;10.38;5.75;;;11.30;99.90;;;;;;5011493;28;21145;-72
2023/10/24 07:56:38;;;;;;;;;;;11.30;99.90;;;;;;5017021;28;20053;-72
2023/10/24 07:59:04;;;;;;;14.05;6.25;;;11.30;99.90;;;;;;5017017;28;20266;-74
2023/10/24 08:01:29;;;;;;;15.85;6.45;;;11.30;99.90;;;;;;5010827;28;20110;-75
2023/10/24 08:03:55;;;;;;;10.55;6.32;;;11.30;99.90;;;;;;5015019;28;20086;-71
2023/10/24 08:06:21;;;;;;;14.10;7.23;;;11.30;99.90;;;;;;5013544;28;20477;-71
2023/10/24 08:08:47;;;;;;;14.93;6.68;;;11.30;99.90;;;;;;5014886;28;20052;-71
2023/10/24 08:11:13;;;;;;;16.63;7.32;;;11.30;99.90;;;;;;5014719;28;20394;-72
2023/10/24 08:13:39;;;;;;;15.38;6.97;;;11.30;99.90;;;;;;5014447;28;20061;-72
2023/10/24 08:16:06;;;;;;;12.77;6.72;;;11.30;99.90;;;;;;5015492;28;20080;-72
2023/10/24 08:18:32;;;;;;;12.75;6.85;;;11.30;99.90;;;;;;5009822;28;20112;-72
2023/10/24 08:20:57;;;;;;;21.33;8.73;;;11.30;99.90;;;;;;5015779;28;20046;-72
2023/10/24 08:23:23;;;;;;;18.00;7.70;;;11.30;99.90;;;;;;5013159;28;20053;-72
2023/10/24 08:25:48;;;;;;;21.15;7.65;;;11.30;99.90;;;;;;5016385;28;20038;-72
2023/10/24 08:28:14;;;;;;;19.20;7.90;;;11.30;99.90;;;;;;5012010;28;20042;-72
2023/10/24 08:30:40;;;;;;;16.17;7.07;;;11.30;99.90;;;;;;5017217;28;20261;-72
2023/10/24 08:33:06;;;;;;;13.97;7.87;;;11.30;99.90;;;;;;5008819;28;20040;-72
2023/10/24 08:35:32;;;;;;;;;;;11.30;99.90;;;;;;5015854;28;20037;-72
2023/10/24 08:37:58;;;;;;;14.68;6.63;;;11.30;99.90;;;;;;5018343;28;20407;-72
2023/10/24 08:40:23;;;;;;;11.02;6.45;;;11.30;99.90;;;;;;5020681;28;20045;-72
2023/10/24 08:42:49;;;;;;;11.75;6.93;;;11.30;99.90;;;;;;5020790;28;20080;-72
2023/10/24 08:45:17;;;;;;;15.93;7.67;;;11.30;99.90;;;;;;5013601;28;20034;-72
2023/10/24 08:47:45;;;;;;;13.32;7.25;;;11.30;99.90;;;;;;5019911;28;20091;-72
2023/10/24 08:50:11;;;;;;;15.38;7.70;;;11.30;99.90;;;;;;5021265;28;20052;-72
2023/10/24 08:52:37;;;;;;;16.23;7.70;;;11.30;99.90;;;;;;5018851;28;20124;-72
2023/10/24 08:55:06;;;;;;;15.77;8.57;;;11.30;99.90;;;;;;5024086;28;20049;-72
2023/10/24 08:57:40;;;;;;;13.45;7.43;;;11.30;99.90;;;;;;5012738;28;20287;-72
2023/10/24 09:00:10;;;;;;;12.20;7.18;;;11.30;99.90;;;;;;4996971;28;20076;-72
2023/10/24 09:02:37;;;;;;;13.93;8.23;;;11.30;99.90;;;;;;5014889;28;20503;-72
2023/10/24 09:05:04;;;;;;;14.68;7.68;;;11.30;99.90;;;;;;5016540;28;20056;-72
2023/10/24 09:07:29;;;;;;;16.58;8.63;;;11.30;99.90;;;;;;5021103;28;20101;-72
2023/10/24 09:09:55;;;;;;;19.03;7.97;;;11.30;99.90;;;;;;5018898;28;20377;-72
2023/10/24 09:12:23;;;;;;;12.97;7.77;;;11.40;99.90;;;;;;5015719;28;20044;-72
2023/10/24 09:14:49;;;;;;;15.52;7.50;;;11.40;99.90;;;;;;5019109;28;20107;-72
2023/10/24 09:17:16;;;;;;;13.57;7.90;;;11.40;99.90;;;;;;5015733;28;20060;-72
2023/10/24 09:19:43;;;;;;;11.90;7.50;;;11.40;99.90;;;;;;5010277;28;20303;-72
2023/10/24 09:22:09;;;;;;;16.98;9.23;;;11.40;99.90;;;;;;5017394;28;20045;-72
2023/10/24 09:24:35;;;;;;;12.20;7.57;;;11.50;99.90;;;;;;5015203;28;20510;-72
2023/10/24 09:27:01;;;;;;;14.38;7.95;;;11.50;99.90;;;;;;5012988;28;20171;-72
2023/10/24 09:29:27;;;;;;;13.27;8.20;;;11.50;99.90;;;;;;5018256;28;20037;-72
2023/10/24 09:31:54;;;;;;;15.07;8.23;;;11.50;99.90;;;;;;4998101;28;20057;-72
2023/10/24 09:34:21;;;;;;;14.45;8.27;;;11.50;99.90;;;;;;5013085;28;20125;-72
2023/10/24 09:36:48;;;;;;;15.15;8.27;;;11.50;99.90;;;;;;5011257;28;20041;-72
2023/10/24 09:39:14;;;;;;;14.48;8.60;;;11.50;99.90;;;;;;4999260;28;20502;-72
2023/10/24 09:41:45;;;;;;;17.13;8.80;;;11.50;99.90;;;;;;5015185;28;20490;-72
2023/10/24 09:44:11;;;;;;;17.08;8.82;;;11.50;99.90;;;;;;5001659;28;20053;-72
2023/10/24 09:46:38;;;;;;;15.00;7.97;;;11.50;99.90;;;;;;5016298;28;20044;-72
2023/10/24 09:49:07;;;;;;;15.98;8.90;;;11.50;99.90;;;;;;5021984;28;20076;-72
2023/10/24 09:51:36;;;;;;;15.23;8.65;;;11.50;99.90;;;;;;5022345;28;20053;-72
2023/10/24 09:54:03;;;;;;;14.40;8.43;;;11.50;99.90;;;;;;5015224;28;20502;-72
2023/10/24 09:56:29;;;;;;;14.30;8.18;;;11.50;99.90;;;;;;5015244;28;20112;-72
2023/10/24 09:58:55;;;;;;;13.90;7.93;;;11.50;99.90;;;;;;5015512;28;20050;-72
2023/10/24 10:01:22;;;;;;;12.85;7.80;;;11.40;99.90;;;;;;5016719;28;20045;-72
2023/10/24 10:03:51;;;;;;;13.77;7.85;;;11.40;99.90;;;;;;5018426;28;20044;-72
2023/10/24 10:06:17;;;;;;;19.63;8.40;;;11.40;99.90;;;;;;5014083;28;20037;-72
2023/10/24 10:08:44;;;;;;;14.18;8.25;;;11.50;99.90;;;;;;5019778;28;20064;-72
2023/10/24 10:11:10;;;;;;;16.63;8.32;;;11.40;99.90;;;;;;5014926;28;20053;-72
2023/10/24 10:13:56;;;;;;;;;;;11.50;99.90;;;;;;5009159;28;20037;-72
2023/10/24 10:16:40;;;;;;;13.88;7.60;;;11.40;99.90;;;;;;5016732;28;20297;-72
2023/10/24 10:19:44;;;;;;;12.15;7.50;;;11.40;99.90;;;;;;5021298;28;20046;-72
2023/10/24 10:22:25;;;;;;;18.10;8.70;;;11.50;99.90;;;;;;5011887;28;20076;-72
2023/10/24 10:25:20;;;;;;;13.80;7.70;;;11.50;99.90;;;;;;5017639;28;20517;-72
2023/10/24 10:28:11;;;;;;;15.23;8.45;;;11.50;99.90;;;;;;5023989;28;20461;-72
2023/10/24 10:30:47;;;;;;;14.10;7.78;;;11.50;99.90;;;;;;5016345;28;20302;-72
2023/10/24 10:33:20;;;;;;;17.33;8.13;;;11.50;99.90;;;;;;5014193;28;20743;-72
2023/10/24 10:36:08;;;;;;;14.15;8.00;;;11.50;99.90;;;;;;5009930;28;20426;-73
2023/10/24 10:38:48;;;;;;;15.13;8.05;;;11.40;99.90;;;;;;5008666;28;20057;-72
2023/10/24 10:41:35;;;;;;;15.75;8.38;;;11.50;99.90;;;;;;5013982;28;20556;-72
2023/10/24 10:44:02;;;;;;;14.70;7.90;;;11.50;99.90;;;;;;5012981;28;20073;-72
2023/10/24 10:46:29;;;;;;;16.27;8.40;;;11.50;99.90;;;;;;5012473;28;20183;-72
2023/10/24 10:48:59;;;;;;;14.38;7.88;;;11.60;99.90;;;;;;5018847;28;20041;-72
2023/10/24 10:51:43;;;;;;;16.63;8.45;;;11.50;99.90;;;;;;5007906;28;20121;-72
2023/10/24 10:54:25;;;;;;;14.90;8.00;;;11.60;99.90;;;;;;5015598;28;20072;-72
2023/10/24 10:56:50;;;;;;;19.27;8.73;;;11.60;99.90;;;;;;5016018;28;20045;-73
2023/10/24 10:59:33;;;;;;;14.75;8.18;;;11.60;99.90;;;;;;5014412;28;20526;-72
2023/10/24 11:01:59;;;;;;;16.42;8.60;;;11.70;99.90;;;;;;5017222;28;20430;-73
2023/10/24 11:04:25;;;;;;;15.53;8.73;;;11.70;99.90;;;;;;5017282;28;20037;-72
2023/10/24 11:06:58;;;;;;;16.70;8.57;;;11.70;99.90;;;;;;5013457;28;20033;-72
2023/10/24 11:09:32;;;;;;;17.20;8.75;;;11.80;99.90;;;;;;5013601;28;20048;-73
2023/10/24 11:12:27;;;;;;;12.45;7.72;;;11.80;99.90;;;;;;5019283;28;20049;-72
2023/10/24 11:15:13;;;;;;;14.32;8.55;;;11.80;99.90;;;;;;5022128;28;20057;-73
2023/10/24 11:17:39;;;;;;;14.75;8.45;;;11.90;99.90;;;;;;5015377;28;20477;-72
2023/10/24 11:20:06;;;;;;;17.55;9.27;;;11.90;99.90;;;;;;5011390;28;20045;-72
2023/10/24 11:22:32;;;;;;;;;;;11.90;99.90;;;;;;5010388;28;20540;-72
2023/10/24 11:25:07;;;;;;;17.65;8.80;;;11.90;99.90;;;;;;5017247;28;20020;-72
2023/10/24 11:27:33;;;;;;;15.38;9.13;;;11.90;99.90;;;;;;5010467;28;20048;-72
2023/10/24 11:29:59;;;;;;;14.63;8.80;;;11.90;99.90;;;;;;5006810;28;20068;-72
2023/10/24 11:32:25;;;;;;;16.23;9.27;;;11.90;99.90;;;;;;5014095;28;20037;-72
2023/10/24 11:34:51;;;;;;;16.97;8.93;;;11.90;99.90;;;;;;5014605;28;20136;-72
2023/10/24 11:37:16;;;;;;;17.63;8.83;;;11.90;99.90;;;;;;5014063;28;20037;-72
2023/10/24 11:39:42;;;;;;;16.20;8.80;;;11.90;99.90;;;;;;5012946;28;20041;-72
2023/10/24 11:42:08;;;;;;;16.65;9.45;;;12.00;99.90;;;;;;5015053;28;20046;-72
2023/10/24 11:44:33;;;;;;;14.40;7.97;;;12.00;99.90;;;;;;5020074;28;20084;-72
2023/10/24 11:46:59;;;;;;;14.43;8.65;;;11.90;99.90;;;;;;5013609;28;20457;-72
2023/10/24 11:49:32;;;;;;;13.30;8.07;;;11.90;99.90;;;;;;5009824;28;20060;-72
2023/10/24 11:51:58;;;;;;;17.23;8.60;;;12.00;99.90;;;;;;5018088;28;20310;-72
2023/10/24 11:54:26;;;;;;;16.13;8.98;;;12.00;99.90;;;;;;5006438;28;20145;-72
2023/10/24 11:56:53;;;;;;;14.82;8.73;;;12.00;99.90;;;;;;5025370;28;20053;-72
2023/10/24 11:59:19;;;;;;;12.65;8.10;;;11.90;99.90;;;;;;5013750;28;20049;-72
2023/10/24 12:01:45;;;;;;;14.55;8.90;;;11.90;99.90;;;;;;5013913;28;20045;-72
2023/10/24 12:04:13;;;;;;;16.73;7.93;;;11.90;99.90;;;;;;5009231;28;20474;-72
2023/10/24 12:06:39;;;;;;;18.10;9.07;;;11.90;99.90;;;;;;5017297;28;20286;-72
2023/10/24 12:09:05;;;;;;;24.95;9.57;;;11.90;99.90;;;;;;5009506;28;20104;-72
2023/10/24 12:11:35;;;;;;;;;;;11.90;99.90;;;;;;5016032;28;20537;-72
2023/10/24 12:14:01;;;;;;;14.32;7.85;;;11.90;99.90;;;;;;5013618;28;20530;-72
2023/10/24 12:16:31;;;;;;;14.55;8.00;;;11.90;99.90;;;;;;5010286;28;20122;-72
2023/10/24 12:18:57;;;;;;;12.88;7.75;;;12.00;99.90;;;;;;5010979;28;20053;-72
2023/10/24 12:21:23;;;;;;;12.43;7.80;;;11.90;99.90;;;;;;5005099;28;20038;-72
2023/10/24 12:23:49;;;;;;;12.05;8.05;;;12.00;99.90;;;;;;5010571;28;20033;-72
2023/10/24 12:26:14;;;;;;;13.80;7.70;;;11.90;99.90;;;;;;5013266;28;20123;-72
2023/10/24 12:28:43;;;;;;;12.93;7.63;;;11.90;99.90;;;;;;4994900;28;20045;-72
2023/10/24 12:31:10;;;;;;;12.82;8.20;;;12.00;99.90;;;;;;5001418;28;20128;-72
2023/10/24 12:33:36;;;;;;;14.20;8.32;;;12.00;99.90;;;;;;5008006;28;20121;-72
2023/10/24 12:36:03;;;;;;;12.70;7.47;;;12.00;99.90;;;;;;5009316;28;20388;-72
2023/10/24 12:38:28;;;;;;;;;;;12.00;99.90;;;;;;4995388;28;20084;-72
2023/10/24 12:40:54;;;;;;;14.60;8.40;;;11.90;99.90;;;;;;5019187;28;19917;-72
2023/10/24 12:43:20;;;;;;;14.05;8.30;;;11.90;99.90;;;;;;5013015;28;20042;-72
2023/10/24 12:45:46;;;;;;;18.43;8.73;;;11.90;99.90;;;;;;5017149;28;20049;-72